createdAt,value
2023-02-11T00:02:23.655Z,15.35
2023-02-11T00:05:25.303Z,13.55
2023-02-11T00:08:27.026Z,14.60
2023-02-11T00:11:31.486Z,14.80
2023-02-11T00:14:33.105Z,12.82
2023-02-11T00:17:34.742Z,15.23
2023-02-11T00:20:38.975Z,12.75
2023-02-11T00:23:40.724Z,17.05
2023-02-11T00:26:42.329Z,15.90
2023-02-11T00:29:43.996Z,15.53
2023-02-11T00:32:45.598Z,15.15
2023-02-11T00:35:47.209Z,15.55
2023-02-11T00:38:48.993Z,16.70
2023-02-11T00:41:50.603Z,16.48
2023-02-11T00:44:52.212Z,17.02
2023-02-11T00:47:53.804Z,16.83
2023-02-11T00:50:55.412Z,15.95
2023-02-11T00:53:57.075Z,13.93
2023-02-11T00:56:58.681Z,14.63
2023-02-11T01:00:00.277Z,14.80
2023-02-11T01:03:01.889Z,15.30
2023-02-11T01:06:06.624Z,16.95
2023-02-11T01:09:08.213Z,15.33
2023-02-11T01:12:09.853Z,13.10
2023-02-11T01:15:12.607Z,15.05
2023-02-11T01:18:16.268Z,14.07
2023-02-11T01:21:21.594Z,12.43
2023-02-11T01:24:23.169Z,12.25
2023-02-11T01:27:24.775Z,12.45
2023-02-11T01:30:26.368Z,12.83
2023-02-11T01:33:28.302Z,13.38
2023-02-11T01:36:33.865Z,10.35
2023-02-11T01:39:35.739Z,15.33
2023-02-11T01:42:37.380Z,14.20
2023-02-11T01:45:44.964Z,13.15
2023-02-11T01:48:52.109Z,12.13
2023-02-11T01:52:02.349Z,15.23
2023-02-11T01:55:25.447Z,14.27
2023-02-11T01:58:27.302Z,12.57
2023-02-11T02:01:28.983Z,13.67
2023-02-11T02:04:33.224Z,12.65
2023-02-11T02:08:17.937Z,14.27
2023-02-11T02:11:19.547Z,14.70
2023-02-11T02:14:21.301Z,14.52
2023-02-11T02:17:29.184Z,13.23
2023-02-11T02:20:30.749Z,13.77
2023-02-11T02:23:51.853Z,15.60
2023-02-11T02:27:15.705Z,14.23
2023-02-11T02:30:26.540Z,14.70
2023-02-11T02:33:28.160Z,14.07
2023-02-11T02:36:37.405Z,12.02
2023-02-11T02:39:42.532Z,13.75
2023-02-11T02:42:44.143Z,11.03
2023-02-11T02:45:45.967Z,11.75
2023-02-11T02:48:49.549Z,12.65
2023-02-11T02:51:54.039Z,13.52
2023-02-11T02:55:17.310Z,14.32
2023-02-11T02:58:46.768Z,12.60
2023-02-11T03:02:10.862Z,10.88
2023-02-11T03:05:19.820Z,10.50
2023-02-11T03:08:34.973Z,12.77
2023-02-11T03:11:36.574Z,13.38
2023-02-11T03:14:38.163Z,13.63
2023-02-11T03:17:41.777Z,12.45
2023-02-11T03:20:44.770Z,13.40
2023-02-11T03:24:03.414Z,12.82
2023-02-11T03:27:15.788Z,13.85
2023-02-11T03:30:21.099Z,12.77
2023-02-11T03:33:46.836Z,13.07
2023-02-11T03:36:54.638Z,13.10
2023-02-11T03:40:12.671Z,12.25
2023-02-11T03:43:33.699Z,11.77
2023-02-11T03:46:37.316Z,11.47
2023-02-11T03:49:39.447Z,12.88
2023-02-11T03:52:41.075Z,12.73
2023-02-11T03:55:42.719Z,13.98
2023-02-11T03:58:45.631Z,12.07
2023-02-11T04:01:47.361Z,11.85
2023-02-11T04:04:48.978Z,14.18
2023-02-11T04:07:50.581Z,10.53
2023-02-11T04:10:52.144Z,13.90
2023-02-11T04:13:53.837Z,13.05
2023-02-11T04:16:57.118Z,10.33
2023-02-11T04:19:58.707Z,12.55
2023-02-11T04:23:00.386Z,14.55
2023-02-11T04:26:01.986Z,12.30
2023-02-11T04:29:03.573Z,14.30
2023-02-11T04:32:05.262Z,11.60
2023-02-11T04:35:07.029Z,12.35
2023-02-11T04:38:08.608Z,13.80
2023-02-11T04:41:14.292Z,12.27
2023-02-11T04:44:15.905Z,12.43
2023-02-11T04:47:17.678Z,10.50
2023-02-11T04:50:19.480Z,12.82
2023-02-11T04:53:21.145Z,11.23
2023-02-11T04:56:22.762Z,12.70
2023-02-11T04:59:24.417Z,15.02
2023-02-11T05:02:26.113Z,14.00
2023-02-11T05:05:27.760Z,12.82
2023-02-11T05:08:29.366Z,14.47
2023-02-11T05:11:34.016Z,13.32
2023-02-11T05:14:35.655Z,14.07
2023-02-11T05:17:37.289Z,15.10
2023-02-11T05:20:39.281Z,12.95
2023-02-11T05:23:40.982Z,13.85
2023-02-11T05:26:42.608Z,13.32
2023-02-11T05:29:44.226Z,13.07
2023-02-11T05:32:45.841Z,11.95
2023-02-11T05:35:47.553Z,9.63
2023-02-11T05:38:50.637Z,14.03
2023-02-11T05:41:56.150Z,14.05
2023-02-11T05:44:57.926Z,13.18
2023-02-11T05:47:59.509Z,10.40
2023-02-11T05:51:01.145Z,12.85
2023-02-11T05:54:02.728Z,15.23
2023-02-11T05:57:07.541Z,15.35
2023-02-11T06:00:09.793Z,13.57
2023-02-11T06:03:11.419Z,11.32
2023-02-11T06:06:13.034Z,12.10
2023-02-11T06:09:14.685Z,13.13
2023-02-11T06:12:19.766Z,14.48
2023-02-11T06:15:21.364Z,13.18
2023-02-11T06:18:23.162Z,14.20
2023-02-11T06:21:33.519Z,16.20
2023-02-11T06:25:00.503Z,15.18
2023-02-11T06:28:02.903Z,13.80
2023-02-11T06:31:06.773Z,13.77
2023-02-11T06:34:09.374Z,16.05
2023-02-11T06:37:11.017Z,15.23
2023-02-11T06:40:12.836Z,14.53
2023-02-11T06:43:14.504Z,14.25
2023-02-11T06:46:16.261Z,16.38
2023-02-11T06:49:17.934Z,16.30
2023-02-11T06:52:19.473Z,11.77
2023-02-11T06:55:21.099Z,14.73
2023-02-11T06:58:22.785Z,14.55
2023-02-11T07:01:25.027Z,15.63
2023-02-11T07:04:26.634Z,15.10
2023-02-11T07:07:28.425Z,14.57
2023-02-11T07:10:30.133Z,10.17
2023-02-11T07:13:31.764Z,16.83
2023-02-11T07:16:33.574Z,16.10
2023-02-11T07:19:35.287Z,14.50
2023-02-11T07:22:37.438Z,14.30
2023-02-11T07:25:39.048Z,14.55
2023-02-11T07:28:40.891Z,15.40
2023-02-11T07:31:42.648Z,15.60
2023-02-11T07:34:44.376Z,16.25
2023-02-11T07:37:45.982Z,16.48
2023-02-11T07:40:47.579Z,18.20
2023-02-11T07:43:49.253Z,17.48
2023-02-11T07:46:50.976Z,15.90
2023-02-11T07:49:56.117Z,16.07
2023-02-11T07:52:58.137Z,14.77
2023-02-11T07:55:59.774Z,18.40
2023-02-11T07:59:03.269Z,18.05
2023-02-11T08:02:05.008Z,12.70
2023-02-11T08:05:06.956Z,17.52
2023-02-11T08:08:08.564Z,16.95
2023-02-11T08:11:28.951Z,18.43
2023-02-11T08:14:32.806Z,17.45
2023-02-11T08:17:36.015Z,17.23
2023-02-11T08:20:37.639Z,16.47
2023-02-11T08:23:40.041Z,17.58
2023-02-11T08:26:41.807Z,17.45
2023-02-11T08:29:43.734Z,18.75
2023-02-11T08:32:45.364Z,18.08
2023-02-11T08:35:47.173Z,16.92
2023-02-11T08:38:48.968Z,17.25
2023-02-11T08:41:52.982Z,15.67
2023-02-11T08:44:54.563Z,16.13
2023-02-11T08:47:56.210Z,17.20
2023-02-11T08:50:57.802Z,17.40
2023-02-11T08:53:59.744Z,16.77
2023-02-11T08:57:02.049Z,16.70
2023-02-11T09:00:04.448Z,15.80
2023-02-11T09:03:06.040Z,17.17
2023-02-11T09:06:08.870Z,17.30
2023-02-11T09:09:14.467Z,14.88
2023-02-11T09:12:16.100Z,17.63
2023-02-11T09:15:17.721Z,17.33
2023-02-11T09:18:19.332Z,16.70
2023-02-11T09:21:21.068Z,17.37
2023-02-11T09:24:22.682Z,16.17
2023-02-11T09:27:24.268Z,16.02
2023-02-11T09:30:25.875Z,16.10
2023-02-11T09:33:27.565Z,16.03
2023-02-11T09:36:31.823Z,16.00
2023-02-11T09:39:33.518Z,16.25
2023-02-11T09:42:38.202Z,16.52
2023-02-11T09:45:39.795Z,17.20
2023-02-11T09:48:41.999Z,14.65
2023-02-11T09:51:52.346Z,17.98
2023-02-11T09:54:55.734Z,15.20
2023-02-11T09:57:57.518Z,17.73
2023-02-11T10:01:07.795Z,16.48
2023-02-11T10:04:32.583Z,13.88
2023-02-11T10:07:37.261Z,15.82
2023-02-11T10:10:50.768Z,16.27
2023-02-11T10:13:58.530Z,16.90
2023-02-11T10:17:06.058Z,16.02
2023-02-11T10:20:32.657Z,16.73
2023-02-11T10:23:36.133Z,14.97
2023-02-11T10:26:37.804Z,15.00
2023-02-11T10:29:42.146Z,11.95
2023-02-11T10:33:04.828Z,15.80
2023-02-11T10:36:06.822Z,15.30
2023-02-11T10:39:15.241Z,17.95
2023-02-11T10:42:16.925Z,16.33
2023-02-11T10:45:34.063Z,16.55
2023-02-11T10:48:36.602Z,16.55
2023-02-11T10:51:38.217Z,15.80
2023-02-11T10:54:39.811Z,16.92
2023-02-11T10:57:57.785Z,16.00
2023-02-11T11:00:59.940Z,15.40
2023-02-11T11:04:01.578Z,16.70
2023-02-11T11:07:20.028Z,17.83
2023-02-11T11:10:27.695Z,16.42
2023-02-11T11:13:35.670Z,18.48
2023-02-11T11:16:37.455Z,17.10
2023-02-11T11:19:39.356Z,17.65
2023-02-11T11:22:41.396Z,16.00
2023-02-11T11:25:46.004Z,15.55
2023-02-11T11:29:01.912Z,16.13
2023-02-11T11:32:17.764Z,15.15
2023-02-11T11:35:30.487Z,14.65
2023-02-11T11:38:32.154Z,15.30
2023-02-11T11:41:34.353Z,15.07
2023-02-11T11:44:36.690Z,15.13
2023-02-11T11:47:57.979Z,14.73
2023-02-11T11:51:05.250Z,14.75
2023-02-11T11:54:14.365Z,15.27
2023-02-11T11:57:18.218Z,15.93
2023-02-11T12:00:41.000Z,15.48
2023-02-11T12:04:07.213Z,15.10
2023-02-11T12:07:33.770Z,15.68
2023-02-11T12:10:38.333Z,13.43
2023-02-11T12:14:08.405Z,14.75
2023-02-11T12:17:50.073Z,14.85
2023-02-11T12:20:54.711Z,14.60
2023-02-11T12:24:17.718Z,15.53
2023-02-11T12:27:22.455Z,14.87
2023-02-11T12:30:47.605Z,14.98
2023-02-11T12:34:12.050Z,15.10
2023-02-11T12:37:20.106Z,13.43
2023-02-11T12:40:45.049Z,13.90
2023-02-11T12:43:46.661Z,14.43
2023-02-11T12:47:13.358Z,13.15
2023-02-11T12:50:26.958Z,12.43
2023-02-11T12:53:53.883Z,12.68
2023-02-11T12:57:27.932Z,12.70
2023-02-11T13:00:56.172Z,14.70
2023-02-11T13:04:04.911Z,13.45
2023-02-11T13:07:31.083Z,12.05
2023-02-11T13:10:37.243Z,13.27
2023-02-11T13:13:56.076Z,12.25
2023-02-11T13:16:58.606Z,11.70
2023-02-11T13:20:10.116Z,11.27
2023-02-11T13:23:42.394Z,10.82
2023-02-11T13:27:08.183Z,12.13
2023-02-11T13:30:24.510Z,11.55
2023-02-11T13:33:36.103Z,11.60
2023-02-11T13:36:37.666Z,11.85
2023-02-11T13:39:39.409Z,10.20
2023-02-11T13:42:54.131Z,11.33
2023-02-11T13:46:00.752Z,11.20
2023-02-11T13:49:05.504Z,11.52
2023-02-11T13:52:26.286Z,10.07
2023-02-11T13:55:28.121Z,10.27
2023-02-11T13:58:29.716Z,9.85
2023-02-11T14:02:09.416Z,10.52
2023-02-11T14:05:40.034Z,10.45
2023-02-11T14:08:59.003Z,10.23
2023-02-11T14:12:33.489Z,10.07
2023-02-11T14:15:41.179Z,9.35
2023-02-11T14:18:45.809Z,9.52
2023-02-11T14:21:47.482Z,9.63
2023-02-11T14:25:01.118Z,10.95
2023-02-11T14:28:08.878Z,11.68
2023-02-11T14:31:12.596Z,11.57
2023-02-11T14:34:17.233Z,10.23
2023-02-11T14:37:27.853Z,11.13
2023-02-11T14:40:52.380Z,11.02
2023-02-11T14:43:56.921Z,10.80
2023-02-11T14:46:58.593Z,10.43
2023-02-11T14:50:04.487Z,10.48
2023-02-11T14:53:06.330Z,10.68
2023-02-11T14:56:17.909Z,10.32
2023-02-11T14:59:21.446Z,10.35
2023-02-11T15:02:23.907Z,11.73
2023-02-11T15:05:27.363Z,10.35
2023-02-11T15:08:30.088Z,11.33
2023-02-11T15:11:34.029Z,10.10
2023-02-11T15:14:35.696Z,10.35
2023-02-11T15:17:37.259Z,14.27
2023-02-11T15:20:38.903Z,13.68
2023-02-11T15:23:45.033Z,11.40
2023-02-11T15:27:02.320Z,11.32
2023-02-11T15:30:21.097Z,12.02
2023-02-11T15:33:23.121Z,11.63
2023-02-11T15:36:28.673Z,11.27
2023-02-11T15:39:37.257Z,11.93
2023-02-11T15:42:52.029Z,12.52
2023-02-11T15:45:59.679Z,12.90
2023-02-11T15:49:01.335Z,10.52
2023-02-11T15:52:02.971Z,11.23
2023-02-11T15:55:04.765Z,11.20
2023-02-11T15:58:06.330Z,10.10
2023-02-11T16:01:07.920Z,9.85
2023-02-11T16:04:18.872Z,10.30
2023-02-11T16:07:51.928Z,10.98
2023-02-11T16:11:03.288Z,11.00
2023-02-11T16:14:23.125Z,10.25
2023-02-11T16:17:28.483Z,12.32
2023-02-11T16:20:33.023Z,10.55
2023-02-11T16:23:36.148Z,11.90
2023-02-11T16:26:43.569Z,11.60
2023-02-11T16:29:46.883Z,11.38
2023-02-11T16:32:48.473Z,11.65
2023-02-11T16:35:53.402Z,11.63
2023-02-11T16:38:54.991Z,11.48
2023-02-11T16:41:57.250Z,11.20
2023-02-11T16:44:59.850Z,13.27
2023-02-11T16:48:02.352Z,11.40
2023-02-11T16:51:04.601Z,12.50
2023-02-11T16:54:06.212Z,12.00
2023-02-11T16:57:15.455Z,11.73
2023-02-11T17:00:17.704Z,13.10
2023-02-11T17:03:23.531Z,12.32
2023-02-11T17:06:25.130Z,12.88
2023-02-11T17:09:30.312Z,13.70
2023-02-11T17:12:33.072Z,13.53
2023-02-11T17:15:34.665Z,14.18
2023-02-11T17:18:36.957Z,15.00
2023-02-11T17:21:44.598Z,15.88
2023-02-11T17:24:46.177Z,14.00
2023-02-11T17:27:47.988Z,16.63
2023-02-11T17:30:49.652Z,16.77
2023-02-11T17:33:53.834Z,15.90
2023-02-11T17:36:58.635Z,15.32
2023-02-11T17:40:00.502Z,17.25
2023-02-11T17:43:02.196Z,17.42
2023-02-11T17:46:06.561Z,17.90
2023-02-11T17:49:08.194Z,18.13
2023-02-11T17:52:13.591Z,19.20
2023-02-11T17:55:15.256Z,17.67
2023-02-11T17:58:16.875Z,17.08
2023-02-11T18:01:19.001Z,18.98
2023-02-11T18:04:20.753Z,17.73
2023-02-11T18:07:22.352Z,17.27
2023-02-11T18:10:23.998Z,18.33
2023-02-11T18:13:25.689Z,17.95
2023-02-11T18:16:28.950Z,18.88
2023-02-11T18:19:32.404Z,17.17
2023-02-11T18:22:39.129Z,17.92
2023-02-11T18:25:44.331Z,19.00
2023-02-11T18:28:46.290Z,17.83
2023-02-11T18:31:48.028Z,20.20
2023-02-11T18:34:49.624Z,17.17
2023-02-11T18:37:55.806Z,18.70
2023-02-11T18:40:57.497Z,19.27
2023-02-11T18:44:02.754Z,17.75
2023-02-11T18:47:04.448Z,19.85
2023-02-11T18:50:06.876Z,19.35
2023-02-11T18:53:11.664Z,18.80
2023-02-11T18:56:18.364Z,18.95
2023-02-11T18:59:19.996Z,19.40
2023-02-11T19:02:21.654Z,19.42
2023-02-11T19:05:23.260Z,19.52
2023-02-11T19:08:28.417Z,18.92
2023-02-11T19:11:49.037Z,18.48
2023-02-11T19:14:50.669Z,18.40
2023-02-11T19:17:52.288Z,16.10
2023-02-11T19:20:53.880Z,18.00
2023-02-11T19:23:55.497Z,18.92
2023-02-11T19:26:58.938Z,17.00
2023-02-11T19:30:00.557Z,16.40
2023-02-11T19:33:02.201Z,17.20
2023-02-11T19:36:07.661Z,18.95
2023-02-11T19:39:09.496Z,18.08
2023-02-11T19:42:11.771Z,18.40
2023-02-11T19:45:13.399Z,19.02
2023-02-11T19:48:14.992Z,18.03
2023-02-11T19:51:16.751Z,17.58
2023-02-11T19:54:18.545Z,19.23
2023-02-11T19:57:20.153Z,17.83
2023-02-11T20:00:21.920Z,16.92
2023-02-11T20:03:23.491Z,18.63
2023-02-11T20:06:26.740Z,18.08
2023-02-11T20:09:32.796Z,18.90
2023-02-11T20:12:34.385Z,17.75
2023-02-11T20:15:36.746Z,16.67
2023-02-11T20:18:39.256Z,17.25
2023-02-11T20:21:40.941Z,14.73
2023-02-11T20:24:49.522Z,17.38
2023-02-11T20:27:51.132Z,15.73
2023-02-11T20:30:57.379Z,17.02
2023-02-11T20:33:59.701Z,17.50
2023-02-11T20:37:02.983Z,16.40
2023-02-11T20:40:13.298Z,16.30
2023-02-11T20:43:15.892Z,15.70
2023-02-11T20:46:18.979Z,16.48
2023-02-11T20:49:22.669Z,15.60
2023-02-11T20:52:24.286Z,17.88
2023-02-11T20:55:29.475Z,16.27
2023-02-11T20:58:32.698Z,16.33
2023-02-11T21:01:40.649Z,15.48
2023-02-11T21:04:42.393Z,15.57
2023-02-11T21:07:44.045Z,14.38
2023-02-11T21:10:45.700Z,14.75
2023-02-11T21:13:48.743Z,14.48
2023-02-11T21:16:50.552Z,13.13
2023-02-11T21:19:52.316Z,15.98
2023-02-11T21:22:53.929Z,14.85
2023-02-11T21:25:56.623Z,13.43
2023-02-11T21:28:58.498Z,13.45
2023-02-11T21:32:00.164Z,13.95
2023-02-11T21:35:02.457Z,13.32
2023-02-11T21:38:04.294Z,12.90
2023-02-11T21:41:06.078Z,13.30
2023-02-11T21:44:07.779Z,12.27
2023-02-11T21:47:09.383Z,12.85
2023-02-11T21:50:11.399Z,11.88
2023-02-11T21:53:13.044Z,11.25
2023-02-11T21:56:16.255Z,11.73
2023-02-11T21:59:20.619Z,11.07
2023-02-11T22:02:22.269Z,11.40
2023-02-11T22:05:24.124Z,11.20
2023-02-11T22:08:25.712Z,12.70
2023-02-11T22:11:27.311Z,11.87
2023-02-11T22:14:31.326Z,11.35
2023-02-11T22:17:34.460Z,11.63
2023-02-11T22:20:36.085Z,11.23
2023-02-11T22:23:37.896Z,10.40
2023-02-11T22:26:39.609Z,10.18
2023-02-11T22:29:41.223Z,9.55
2023-02-11T22:32:42.807Z,9.83
2023-02-11T22:35:44.404Z,9.20
2023-02-11T22:38:46.058Z,9.40
2023-02-11T22:41:47.915Z,9.13
2023-02-11T22:44:49.498Z,9.30
2023-02-11T22:47:51.099Z,9.15
2023-02-11T22:50:52.728Z,9.63
2023-02-11T22:54:01.892Z,9.93
2023-02-11T22:57:03.714Z,9.67
2023-02-11T23:00:09.807Z,9.05
2023-02-11T23:03:11.402Z,9.98
2023-02-11T23:06:13.211Z,10.30
2023-02-11T23:09:14.830Z,9.98
2023-02-11T23:12:16.417Z,10.25
2023-02-11T23:15:18.144Z,10.10
2023-02-11T23:18:19.737Z,11.03
2023-02-11T23:21:23.335Z,10.43
2023-02-11T23:24:24.981Z,10.20
2023-02-11T23:27:26.624Z,10.15
2023-02-11T23:30:32.192Z,10.57
2023-02-11T23:33:33.770Z,9.90
2023-02-11T23:36:41.927Z,10.48
2023-02-11T23:39:43.503Z,10.80
2023-02-11T23:42:45.787Z,9.90
2023-02-11T23:45:47.397Z,9.98
2023-02-11T23:48:49.609Z,10.15
2023-02-11T23:51:51.234Z,10.50
2023-02-11T23:54:52.861Z,10.48
2023-02-11T23:57:54.456Z,10.18
